Time;durP1;ratioP1;P1;durP2;ratioP2;P2;SDS_P1;SDS_P2;PMS_P1;PMS_P2;Temp;Humidity;BMP_temperature;BMP_pressure;BME280_temperature;BME280_humidity;BME280_pressure;Samples;Min_cycle;Max_cycle;Signal;HPM_P1;HPM_P2
2023/11/26 00:00:23;;;;;;;7.43;4.20;;;;;;;1.68;100.00;98944.13;5072237;28;20102;-42
2023/11/26 00:02:51;;;;;;;7.20;3.90;;;;;;;1.80;100.00;98944.50;5072577;28;20056;-42
2023/11/26 00:05:21;;;;;;;6.97;3.97;;;;;;;1.81;100.00;98939.16;5072441;28;20049;-45
2023/11/26 00:07:50;;;;;;;6.55;3.75;;;;;;;1.58;100.00;98939.34;5072303;28;20136;-42
2023/11/26 00:10:18;;;;;;;7.32;3.88;;;;;;;1.57;100.00;98943.75;5072054;28;20056;-41
2023/11/26 00:12:47;;;;;;;8.57;3.78;;;;;;;1.56;100.00;98943.84;5072124;28;20040;-42
2023/11/26 00:15:15;;;;;;;7.20;3.90;;;;;;;1.54;100.00;98943.88;5072230;28;20135;-41
2023/11/26 00:17:44;;;;;;;8.20;3.97;;;;;;;1.44;100.00;98938.16;5072191;28;20130;-42
2023/11/26 00:20:13;;;;;;;5.45;3.47;;;;;;;1.59;100.00;98948.94;5072097;28;20044;-40
2023/11/26 00:22:42;;;;;;;8.32;3.78;;;;;;;1.44;100.00;98932.91;5072018;28;20070;-43
2023/11/26 00:25:12;;;;;;;6.85;3.70;;;;;;;1.36;100.00;98940.31;5051682;28;20068;-42
2023/11/26 00:27:40;;;;;;;6.05;3.40;;;;;;;1.53;100.00;98946.56;5051867;28;20124;-41
2023/11/26 00:30:09;;;;;;;6.47;3.35;;;;;;;1.42;100.00;98945.28;5051785;28;20478;-42
2023/11/26 00:32:37;;;;;;;7.10;3.55;;;;;;;1.57;100.00;98938.50;5051673;28;20060;-41
2023/11/26 00:35:06;;;;;;;7.97;3.70;;;;;;;1.49;100.00;98951.13;5051814;28;20080;-41
2023/11/26 00:37:35;;;;;;;7.32;3.83;;;;;;;1.51;100.00;98949.28;5051817;28;20063;-42
2023/11/26 00:40:06;;;;;;;8.32;3.60;;;;;;;1.54;100.00;98950.91;5051773;28;20053;-41
2023/11/26 00:42:34;;;;;;;8.90;3.75;;;;;;;1.51;100.00;98951.91;5051547;28;20395;-42
2023/11/26 00:45:03;;;;;;;5.90;3.70;;;;;;;1.58;100.00;98960.38;5051426;28;20576;-42
2023/11/26 00:47:31;;;;;;;6.75;3.80;;;;;;;1.35;100.00;98964.88;5051746;28;20060;-41
2023/11/26 00:50:03;;;;;;;6.30;3.47;;;;;;;1.45;100.00;98957.44;5051719;28;20045;-42
2023/11/26 00:52:32;;;;;;;5.43;3.20;;;;;;;1.42;100.00;98949.69;5051432;28;20068;-41
2023/11/26 00:55:01;;;;;;;6.20;3.40;;;;;;;1.47;100.00;98950.34;5051406;28;20049;-44
2023/11/26 00:57:31;;;;;;;7.75;3.90;;;;;;;1.50;100.00;98939.69;5051851;28;20072;-41
2023/11/26 00:59:59;;;;;;;8.27;3.55;;;;;;;1.49;100.00;98940.63;5051634;28;20090;-43
2023/11/26 01:02:29;;;;;;;5.95;3.17;;;;;;;1.59;100.00;98951.56;5051524;28;20076;-41
2023/11/26 01:04:58;;;;;;;6.57;3.38;;;;;;;1.62;100.00;98947.03;5051311;28;20045;-41
2023/11/26 01:07:30;;;;;;;6.43;3.63;;;;;;;1.58;100.00;98950.72;5051556;28;20091;-42
2023/11/26 01:09:58;;;;;;;6.55;3.63;;;;;;;1.58;100.00;98944.63;5051761;28;20045;-41
2023/11/26 01:12:27;;;;;;;7.35;3.58;;;;;;;1.48;100.00;98938.06;5051811;28;20092;-40
2023/11/26 01:14:57;;;;;;;6.72;3.67;;;;;;;1.55;100.00;98940.34;5051424;28;20489;-41
2023/11/26 01:17:25;;;;;;;7.28;4.10;;;;;;;1.61;100.00;98939.22;5051415;28;20481;-43
2023/11/26 01:19:54;;;;;;;7.90;4.07;;;;;;;1.54;100.00;98937.78;5051391;28;20073;-41
2023/11/26 01:22:24;;;;;;;6.90;4.07;;;;;;;1.42;100.00;98932.13;5051855;28;20111;-41
2023/11/26 01:24:53;;;;;;;7.40;4.03;;;;;;;1.38;100.00;98937.59;5051280;28;20056;-42
2023/11/26 01:27:21;;;;;;;6.80;4.07;;;;;;;1.44;100.00;98939.94;5051660;28;20081;-42
2023/11/26 01:29:49;;;;;;;9.52;4.45;;;;;;;1.60;100.00;98943.63;5051312;28;20069;-41
2023/11/26 01:32:19;;;;;;;8.27;4.93;;;;;;;1.63;100.00;98943.47;5051306;28;20045;-42
2023/11/26 01:34:47;;;;;;;8.15;4.32;;;;;;;1.69;100.00;98937.94;5051500;28;20053;-42
2023/11/26 01:37:16;;;;;;;9.15;4.60;;;;;;;1.83;100.00;98939.94;5051255;28;20041;-43
2023/11/26 01:39:44;;;;;;;7.32;4.40;;;;;;;1.88;100.00;98937.13;5051283;28;20072;-41
2023/11/26 01:42:13;;;;;;;8.95;4.55;;;;;;;1.67;100.00;98941.56;5051078;28;20449;-43
2023/11/26 01:44:41;;;;;;;7.95;4.63;;;;;;;1.65;100.00;98935.53;5052892;28;20049;-42
2023/11/26 01:47:10;;;;;;;9.32;4.97;;;;;;;1.71;100.00;98941.34;5054499;28;20449;-41
2023/11/26 01:49:40;;;;;;;7.25;4.72;;;;;;;1.75;100.00;98942.09;5055161;28;20136;-41
2023/11/26 01:52:10;;;;;;;9.00;4.88;;;;;;;1.79;100.00;98948.06;5055029;28;20049;-42
2023/11/26 01:54:42;;;;;;;8.65;5.13;;;;;;;1.69;100.00;98943.22;5054862;28;20194;-43
2023/11/26 01:57:13;;;;;;;9.43;5.38;;;;;;;1.49;100.00;98955.53;5054680;28;20045;-41
2023/11/26 01:59:42;;;;;;;12.60;6.13;;;;;;;1.51;100.00;98957.16;5055063;28;20044;-41
2023/11/26 02:02:10;;;;;;;9.68;5.38;;;;;;;1.33;100.00;98955.34;5054928;28;20104;-41
2023/11/26 02:04:40;;;;;;;11.70;5.80;;;;;;;1.23;100.00;98959.28;5054819;28;20044;-41
2023/11/26 02:07:09;;;;;;;11.07;6.15;;;;;;;1.34;100.00;98959.66;5054465;28;20417;-42
2023/11/26 02:09:38;;;;;;;12.77;6.93;;;;;;;1.33;100.00;98960.59;5054569;28;20045;-42
2023/11/26 02:12:09;;;;;;;9.50;5.95;;;;;;;1.44;100.00;98953.94;5054475;28;20141;-43
2023/11/26 02:14:36;;;;;;;10.88;6.05;;;;;;;1.44;100.00;98953.09;5054666;28;20475;-42
2023/11/26 02:17:05;;;;;;;10.02;5.97;;;;;;;1.42;100.00;98957.56;5054606;28;20045;-41
2023/11/26 02:19:34;;;;;;;9.70;5.60;;;;;;;1.50;100.00;98962.50;5054449;28;20127;-42
2023/11/26 02:22:07;;;;;;;12.95;5.90;;;;;;;1.36;100.00;98963.94;5054252;28;20045;-41
2023/11/26 02:24:42;;;;;;;13.07;6.35;;;;;;;1.52;100.00;98971.16;5053890;28;20140;-41
2023/11/26 02:27:10;;;;;;;9.95;6.45;;;;;;;1.37;100.00;98962.19;5054459;28;20061;-41
2023/11/26 02:29:40;;;;;;;10.68;5.88;;;;;;;1.21;100.00;98963.75;5054676;28;20454;-43
2023/11/26 02:32:09;;;;;;;13.25;6.32;;;;;;;1.33;100.00;98961.44;5053047;28;20049;-43
2023/11/26 02:34:38;;;;;;;11.85;6.18;;;;;;;1.36;100.00;98968.34;5054325;28;20055;-41
2023/11/26 02:37:06;;;;;;;12.20;6.70;;;;;;;1.47;100.00;98967.88;5054129;28;20135;-41
2023/11/26 02:39:35;;;;;;;17.15;7.15;;;;;;;1.39;100.00;98976.09;5054286;28;20048;-43
2023/11/26 02:42:05;;;;;;;9.70;5.63;;;;;;;1.53;100.00;98978.13;5054157;28;20095;-41
2023/11/26 02:44:34;;;;;;;10.70;5.70;;;;;;;1.49;100.00;98987.06;5053848;28;20081;-41
2023/11/26 02:47:03;;;;;;;11.10;5.80;;;;;;;1.39;100.00;98987.47;5053915;28;20056;-42
2023/11/26 02:49:33;;;;;;;11.70;5.85;;;;;;;1.50;100.00;98994.03;5053902;28;20048;-41
2023/11/26 02:52:01;;;;;;;8.02;5.00;;;;;;;1.61;100.00;98995.25;5053859;28;20053;-42
2023/11/26 02:54:29;;;;;;;9.60;5.25;;;;;;;1.59;100.00;99004.13;5053958;28;20095;-42
2023/11/26 02:56:58;;;;;;;9.00;5.38;;;;;;;1.83;100.00;98996.94;5053724;28;20529;-43
2023/11/26 02:59:28;;;;;;;9.43;5.10;;;;;;;1.84;100.00;99006.56;5053719;28;20402;-42
2023/11/26 03:01:59;;;;;;;8.23;5.38;;;;;;;1.81;100.00;99004.91;5053616;28;20127;-41
2023/11/26 03:04:27;;;;;;;10.85;5.65;;;;;;;2.00;100.00;99003.16;5053330;28;20394;-43
2023/11/26 03:06:58;;;;;;;11.57;6.22;;;;;;;1.86;100.00;99007.34;5053645;28;20049;-41
2023/11/26 03:12:56;;;;;;;13.07;6.03;;;;;;;1.64;100.00;99012.66;5053750;28;20051;-43
2023/11/26 03:15:18;;;;;;;11.98;5.93;;;;;;;1.72;100.00;99002.66;5053645;28;20092;-42
2023/11/26 03:17:46;;;;;;;10.73;5.97;;;;;;;1.76;100.00;99012.16;5053541;28;20071;-42
2023/11/26 03:20:17;;;;;;;9.95;5.55;;;;;;;1.86;100.00;99012.59;5053453;28;20056;-42
2023/11/26 03:22:46;;;;;;;8.98;5.25;;;;;;;1.62;100.00;99028.50;5053612;28;20103;-42
2023/11/26 03:25:15;;;;;;;11.20;5.75;;;;;;;1.65;100.00;99019.66;5052950;28;20053;-41
2023/11/26 03:27:43;;;;;;;11.70;6.03;;;;;;;1.71;100.00;99022.00;5053433;28;20083;-42
2023/11/26 03:30:13;;;;;;;9.18;5.40;;;;;;;1.49;100.00;99023.84;5053361;28;20045;-42
2023/11/26 03:32:44;;;;;;;11.90;5.93;;;;;;;1.66;100.00;99022.22;5053254;28;20049;-41
2023/11/26 03:35:16;;;;;;;12.55;6.18;;;;;;;1.59;100.00;99030.41;5053176;28;20135;-42
2023/11/26 03:37:45;;;;;;;11.10;5.82;;;;;;;1.76;100.00;99042.84;5053110;28;20059;-42
2023/11/26 03:40:14;;;;;;;13.27;5.82;;;;;;;1.81;100.00;99046.97;5052740;28;20490;-43
2023/11/26 03:42:42;;;;;;;10.45;5.85;;;;;;;1.70;100.00;99039.53;5052980;28;20084;-42
2023/11/26 03:45:11;;;;;;;10.93;5.82;;;;;;;1.79;100.00;99048.81;5052715;28;20131;-41
2023/11/26 03:47:40;;;;;;;12.82;5.65;;;;;;;1.70;100.00;99049.22;5052585;28;20059;-41
2023/11/26 03:50:12;;;;;;;11.05;5.82;;;;;;;1.72;100.00;99048.22;5083988;28;20139;-42
2023/11/26 03:52:41;;;;;;;10.85;6.00;;;;;;;1.72;100.00;99055.25;5052624;28;20051;-43
2023/11/26 03:55:11;;;;;;;11.38;5.78;;;;;;;1.75;100.00;99059.53;5052764;28;20076;-41
2023/11/26 03:57:40;;;;;;;11.48;5.45;;;;;;;2.00;100.00;99054.91;5052468;28;20262;-42
2023/11/26 04:00:09;;;;;;;9.75;5.68;;;;;;;1.68;100.00;99057.16;5052935;28;20049;-42
2023/11/26 04:02:38;;;;;;;10.07;5.93;;;;;;;1.84;100.00;99067.03;5052418;28;20064;-43
2023/11/26 04:05:08;;;;;;;12.35;6.32;;;;;;;1.70;100.00;99065.84;5052459;28;20179;-42
2023/11/26 04:07:38;;;;;;;11.02;6.15;;;;;;;1.68;100.00;99077.34;5051924;28;20056;-42
2023/11/26 04:10:08;;;;;;;10.77;5.43;;;;;;;1.62;100.00;99081.06;5052557;28;20077;-41
2023/11/26 04:12:37;;;;;;;12.07;6.03;;;;;;;1.65;100.00;99088.84;5084484;28;20049;-43
2023/11/26 04:15:06;;;;;;;10.43;6.07;;;;;;;1.88;100.00;99081.75;5052232;28;20466;-42
2023/11/26 04:17:36;;;;;;;12.05;5.10;;;;;;;1.72;100.00;99090.28;5052198;28;20052;-41
2023/11/26 04:20:05;;;;;;;9.10;5.55;;;;;;;1.91;100.00;99089.50;5052311;28;20056;-41
2023/11/26 04:22:35;;;;;;;10.50;5.25;;;;;;;1.95;100.00;99088.47;5052291;28;20048;-41
2023/11/26 04:25:09;;;;;;;11.95;5.82;;;;;;;2.10;100.00;99095.66;5051958;28;20053;-41
2023/11/26 04:27:38;;;;;;;8.82;5.22;;;;;;;2.10;100.00;99100.91;5052027;28;20535;-43
2023/11/26 04:30:08;;;;;;;10.50;5.85;;;;;;;1.92;100.00;99099.09;5051978;28;20136;-42
2023/11/26 04:32:37;;;;;;;11.02;5.45;;;;;;;1.99;100.00;99118.94;5052193;28;20072;-42
2023/11/26 04:35:07;;;;;;;10.77;5.32;;;;;;;1.93;100.00;99116.56;5051823;28;20051;-43
2023/11/26 04:37:36;;;;;;;10.77;5.65;;;;;;;1.81;100.00;99114.47;5051971;28;20049;-44
2023/11/26 04:40:09;;;;;;;10.65;5.75;;;;;;;1.94;100.00;99123.56;5051950;28;20049;-43
2023/11/26 04:42:37;;;;;;;12.80;5.80;;;;;;;1.77;100.00;99119.03;5051695;28;20048;-43
2023/11/26 04:45:07;;;;;;;11.95;5.72;;;;;;;1.94;100.00;99123.56;5052234;28;20049;-42
2023/11/26 04:47:36;;;;;;;11.73;5.97;;;;;;;1.62;100.00;99131.03;5051991;28;20049;-42
2023/11/26 04:50:06;;;;;;;12.07;6.05;;;;;;;1.67;100.00;99134.31;5051821;28;20139;-41
2023/11/26 04:52:34;;;;;;;11.45;5.63;;;;;;;1.48;100.00;99143.88;5051779;28;20045;-42
2023/11/26 04:55:03;;;;;;;13.88;6.15;;;;;;;1.64;100.00;99130.94;5051763;28;20076;-41
2023/11/26 04:57:35;;;;;;;12.05;5.50;;;;;;;1.61;100.00;99150.34;5052054;28;20057;-42
2023/11/26 05:00:04;;;;;;;12.55;6.15;;;;;;;1.50;100.00;99149.94;5051813;28;20045;-42
2023/11/26 05:02:33;;;;;;;11.38;5.82;;;;;;;1.59;100.00;99153.97;5051580;28;20145;-42
2023/11/26 05:05:01;;;;;;;12.43;6.53;;;;;;;1.56;100.00;99154.94;5051665;28;20051;-42
2023/11/26 05:07:30;;;;;;;11.82;6.20;;;;;;;1.72;100.00;99156.00;5051430;28;20155;-43
2023/11/26 05:09:58;;;;;;;13.68;6.68;;;;;;;1.57;100.00;99164.53;5051543;28;20053;-42
2023/11/26 05:12:26;;;;;;;13.45;6.85;;;;;;;1.39;100.00;99160.03;5051679;28;20395;-42
2023/11/26 05:14:56;;;;;;;14.18;7.03;;;;;;;1.41;100.00;99163.44;5051326;28;20053;-42
2023/11/26 05:17:24;;;;;;;12.45;6.72;;;;;;;1.37;100.00;99161.88;5051648;28;20052;-41
2023/11/26 05:19:53;;;;;;;12.73;7.35;;;;;;;1.32;100.00;99154.16;5054006;28;20136;-41
2023/11/26 05:22:21;;;;;;;13.43;6.80;;;;;;;1.39;100.00;99167.91;5087611;28;20111;-41
2023/11/26 05:24:50;;;;;;;13.35;6.75;;;;;;;1.28;100.00;99162.22;5055285;28;20494;-42
2023/11/26 05:27:21;;;;;;;12.77;7.15;;;;;;;1.24;100.00;99160.63;5055769;28;20457;-42
2023/11/26 05:29:50;;;;;;;12.75;6.80;;;;;;;1.30;100.00;99160.38;5055362;28;20064;-41
2023/11/26 05:32:20;;;;;;;12.40;7.30;;;;;;;1.47;100.00;99173.72;5062946;28;20485;-41
2023/11/26 05:34:49;;;;;;;12.70;7.25;;;;;;;1.48;100.00;99170.16;5075109;28;20075;-43
2023/11/26 05:37:17;;;;;;;13.82;7.25;;;;;;;1.22;100.00;99176.44;5075208;28;20076;-43
2023/11/26 05:39:45;;;;;;;13.63;7.40;;;;;;;1.12;100.00;99168.06;5076829;28;20449;-42
2023/11/26 05:42:16;;;;;;;12.02;6.78;;;;;;;1.23;100.00;99172.06;5075152;28;20048;-42
2023/11/26 05:44:45;;;;;;;13.32;6.93;;;;;;;1.31;100.00;99175.22;5075261;28;20044;-42
2023/11/26 05:47:13;;;;;;;14.82;7.65;;;;;;;1.40;100.00;99172.25;5075272;28;20497;-42
2023/11/26 05:49:43;;;;;;;11.80;6.63;;;;;;;1.36;100.00;99175.91;5074823;28;20053;-42
2023/11/26 05:52:11;;;;;;;11.95;7.03;;;;;;;1.38;100.00;99171.47;5078926;28;20131;-42
2023/11/26 05:54:39;;;;;;;12.68;6.75;;;;;;;1.51;100.00;99180.53;5079632;28;20102;-42
2023/11/26 05:57:08;;;;;;;13.43;6.57;;;;;;;1.44;100.00;99179.06;5075097;28;20082;-41
2023/11/26 05:59:38;;;;;;;11.70;6.97;;;;;;;1.69;100.00;99182.44;5074802;28;20417;-42
2023/11/26 06:02:06;;;;;;;12.85;6.65;;;;;;;1.70;100.00;99191.16;5074959;28;20080;-42
2023/11/26 06:04:34;;;;;;;9.65;6.15;;;;;;;1.59;100.00;99194.25;5074777;28;20075;-42
2023/11/26 06:07:05;;;;;;;9.85;6.65;;;;;;;1.79;100.00;99200.47;5074716;28;20130;-42
2023/11/26 06:09:34;;;;;;;11.23;6.78;;;;;;;1.87;100.00;99208.91;5074866;28;20056;-42
2023/11/26 06:12:02;;;;;;;11.93;6.35;;;;;;;1.79;100.00;99210.97;5074637;28;20102;-41
2023/11/26 06:14:30;;;;;;;13.77;6.28;;;;;;;1.70;100.00;99214.84;5074420;28;20051;-41
2023/11/26 06:16:59;;;;;;;11.18;6.28;;;;;;;1.90;100.00;99214.00;5074480;28;20044;-42
2023/11/26 06:19:28;;;;;;;10.68;6.28;;;;;;;1.91;100.00;99205.19;5073972;28;20125;-42
2023/11/26 06:21:56;;;;;;;11.25;5.85;;;;;;;2.03;100.00;99207.34;5074243;28;20055;-42
2023/11/26 06:24:26;;;;;;;10.95;6.00;;;;;;;1.99;100.00;99211.84;5074266;28;20056;-42
2023/11/26 06:26:55;;;;;;;11.77;6.20;;;;;;;2.16;100.00;99223.47;5074309;28;20045;-42
2023/11/26 06:29:23;;;;;;;12.63;6.15;;;;;;;1.84;100.00;99224.81;5073938;28;20052;-41
2023/11/26 06:31:52;;;;;;;11.75;6.38;;;;;;;2.09;100.00;99225.47;5074269;28;20045;-42
2023/11/26 06:34:25;;;;;;;14.23;6.93;;;;;;;2.00;100.00;99236.38;5073949;28;20044;-41
2023/11/26 06:36:54;;;;;;;11.93;6.40;;;;;;;2.11;100.00;99235.94;5074257;28;20472;-41
2023/11/26 06:39:27;;;;;;;12.45;7.07;;;;;;;2.01;100.00;99238.09;5074212;28;20067;-42
2023/11/26 06:41:55;;;;;;;11.35;6.70;;;;;;;2.18;100.00;99240.88;5074035;28;20063;-41
2023/11/26 06:44:23;;;;;;;12.27;6.95;;;;;;;2.01;100.00;99248.63;5074123;28;20048;-42
2023/11/26 06:46:52;;;;;;;14.10;7.13;;;;;;;1.99;100.00;99251.31;5073921;28;20416;-42
2023/11/26 06:49:21;;;;;;;13.45;7.00;;;;;;;2.04;100.00;99259.03;5073119;28;20049;-40
2023/11/26 06:51:51;;;;;;;12.45;7.10;;;;;;;2.16;100.00;99253.25;5073740;28;20103;-42
2023/11/26 06:54:19;;;;;;;12.23;7.55;;;;;;;2.03;100.00;99254.69;5072347;28;20048;-41
2023/11/26 06:56:49;;;;;;;11.45;6.93;;;;;;;2.24;100.00;99266.94;5073817;28;20060;-42
2023/11/26 06:59:16;;;;;;;14.00;7.50;;;;;;;2.32;100.00;99273.63;5073764;28;20450;-40
2023/11/26 07:01:44;;;;;;;12.93;7.60;;;;;;;2.29;100.00;99269.38;5073628;28;20051;-41
2023/11/26 07:04:13;;;;;;;12.35;7.82;;;;;;;2.10;100.00;99279.81;5073613;28;20520;-42
2023/11/26 07:06:42;;;;;;;12.13;7.78;;;;;;;2.24;100.00;99281.88;5073432;28;20040;-41
2023/11/26 07:09:11;;;;;;;12.45;7.30;;;;;;;2.41;100.00;99279.38;5073431;28;20048;-42
2023/11/26 07:11:39;;;;;;;13.25;7.82;;;;;;;2.21;100.00;99288.09;5073522;28;20485;-41
2023/11/26 07:14:09;;;;;;;13.55;7.95;;;;;;;2.43;100.00;99282.81;5073714;28;20055;-43
2023/11/26 07:16:38;;;;;;;15.05;9.07;;;;;;;2.30;100.00;99292.97;5073373;28;20102;-41
2023/11/26 07:19:06;;;;;;;14.00;8.35;;;;;;;2.37;100.00;99293.59;5073415;28;20171;-42
2023/11/26 07:21:40;;;;;;;14.80;8.02;;;;;;;2.19;100.00;99292.56;5073998;28;20052;-42
2023/11/26 07:24:10;;;;;;;17.02;8.63;;;;;;;2.12;100.00;99282.38;5073841;28;20049;-42
2023/11/26 07:26:38;;;;;;;16.38;9.27;;;;;;;2.26;100.00;99296.69;5073417;28;20055;-45
2023/11/26 07:29:06;;;;;;;13.25;8.55;;;;;;;2.13;100.00;99286.72;5073377;28;20080;-43
2023/11/26 07:31:38;;;;;;;17.77;8.13;;;;;;;2.03;100.00;99282.75;5073413;28;20398;-42
2023/11/26 07:34:07;;;;;;;15.65;8.20;;;;;;;2.18;100.00;99295.28;5072964;28;20044;-42
2023/11/26 07:36:35;;;;;;;15.80;9.02;;;;;;;2.16;100.00;99295.34;5072990;28;20147;-40
2023/11/26 07:39:06;;;;;;;14.32;8.55;;;;;;;2.33;100.00;99299.06;5073375;28;20067;-42
2023/11/26 07:41:35;;;;;;;12.32;7.53;;;;;;;2.39;100.00;99306.69;5072594;28;20041;-41
2023/11/26 07:44:09;;;;;;;13.35;8.32;;;;;;;2.35;100.00;99319.13;5071875;28;20040;-41
2023/11/26 07:46:40;;;;;;;14.48;7.95;;;;;;;2.42;100.00;99317.97;5072536;28;20131;-42
2023/11/26 07:49:09;;;;;;;13.27;7.97;;;;;;;2.41;100.00;99318.00;5072858;28;20087;-41
2023/11/26 07:51:37;;;;;;;11.82;7.72;;;;;;;2.45;100.00;99317.81;5072447;28;20448;-41
2023/11/26 07:54:06;;;;;;;11.23;7.45;;;;;;;2.55;100.00;99313.03;5072672;28;20048;-43
2023/11/26 07:56:47;;;;;;;13.82;7.85;;;;;;;2.74;100.00;99310.47;5053002;28;20051;-42
2023/11/26 07:59:15;;;;;;;12.32;7.45;;;;;;;2.88;100.00;99316.81;5052913;28;20115;-41
2023/11/26 08:01:49;;;;;;;10.82;6.53;;;;;;;2.74;100.00;99321.00;5053171;28;20079;-42
2023/11/26 08:04:18;;;;;;;12.13;7.28;;;;;;;2.99;100.00;99316.38;5052214;28;20041;-41
2023/11/26 08:06:47;;;;;;;9.88;6.57;;;;;;;2.84;100.00;99315.25;5052176;28;20077;-41
2023/11/26 08:09:17;;;;;;;12.98;7.15;;;;;;;2.77;100.00;99324.34;5052201;28;20192;-42
2023/11/26 08:11:48;;;;;;;13.68;7.97;;;;;;;3.04;100.00;99326.69;5052483;28;20457;-42
2023/11/26 08:14:17;;;;;;;12.95;7.63;;;;;;;3.31;100.00;99314.09;5066839;28;20108;-41
2023/11/26 08:16:46;;;;;;;13.88;7.78;;;;;;;3.16;100.00;99326.16;5088800;28;20044;-41
2023/11/26 08:19:18;;;;;;;12.23;7.80;;;;;;;3.19;100.00;99331.31;5077059;28;20063;-42
2023/11/26 08:21:53;;;;;;;11.70;7.50;;;;;;;3.43;100.00;99324.91;5091623;28;20093;-42
2023/11/26 08:24:26;;;;;;;14.75;7.68;;;;;;;3.58;100.00;99328.63;5092884;28;20055;-42
2023/11/26 08:26:54;;;;;;;13.07;7.90;;;;;;;3.54;100.00;99323.56;5093390;28;20257;-41
2023/11/26 08:29:25;;;;;;;14.32;8.10;;;;;;;3.61;100.00;99339.03;5091749;28;20044;-42
2023/11/26 08:31:57;;;;;;;15.30;8.18;;;;;;;3.84;100.00;99339.72;5091990;28;20060;-42
2023/11/26 08:34:28;;;;;;;12.20;7.20;;;;;;;3.61;100.00;99343.47;5091729;28;20044;-42
2023/11/26 08:37:02;;;;;;;12.10;7.05;;;;;;;3.62;100.00;99339.88;5091635;28;20052;-42
2023/11/26 08:39:38;;;;;;;12.82;7.57;;;;;;;3.84;100.00;99345.00;5091926;28;20504;-42
2023/11/26 08:42:07;;;;;;;12.18;7.85;;;;;;;3.77;100.00;99343.63;5091959;28;20044;-42
2023/11/26 08:44:35;;;;;;;14.65;8.43;;;;;;;3.80;100.00;99360.13;5091560;28;20488;-41
2023/11/26 08:47:05;;;;;;;14.20;9.48;;;;;;;3.62;100.00;99361.84;5090422;28;20046;-41
2023/11/26 08:49:34;;;;;;;13.93;8.40;;;;;;;3.86;100.00;99359.88;5091904;28;20055;-42
2023/11/26 08:52:03;;;;;;;12.30;8.25;;;;;;;4.06;100.00;99364.19;5091868;28;20048;-41
2023/11/26 08:54:31;;;;;;;11.73;8.30;;;;;;;3.78;100.00;99380.47;5083028;28;20045;-42
2023/11/26 08:57:00;;;;;;;12.48;8.07;;;;;;;3.95;100.00;99364.69;5049773;28;20247;-41
2023/11/26 08:59:29;;;;;;;13.35;8.23;;;;;;;3.95;100.00;99359.41;5050547;28;20060;-41
2023/11/26 09:01:57;;;;;;;13.23;8.52;;;;;;;3.90;100.00;99363.19;5056256;28;20041;-41
2023/11/26 09:04:27;;;;;;;13.20;8.23;;;;;;;3.92;100.00;99372.75;5071278;28;20447;-41
2023/11/26 09:06:55;;;;;;;13.10;7.53;;;;;;;3.91;100.00;99373.69;5071276;28;20045;-45
2023/11/26 09:09:27;;;;;;;10.85;7.40;;;;;;;3.83;100.00;99364.41;5071081;28;20044;-42
2023/11/26 09:11:55;;;;;;;11.90;6.95;;;;;;;3.95;100.00;99375.22;5071058;28;20367;-42
2023/11/26 09:14:23;;;;;;;10.68;7.05;;;;;;;4.05;100.00;99373.00;5071054;28;20056;-42
2023/11/26 09:16:54;;;;;;;12.18;7.65;;;;;;;4.11;100.00;99369.25;5071463;28;20098;-42
2023/11/26 09:19:24;;;;;;;16.50;8.85;;;;;;;4.48;100.00;99387.66;5071455;28;20045;-41
2023/11/26 09:21:54;;;;;;;13.85;7.53;;;;;;;3.83;100.00;99374.97;5071391;28;20049;-40
2023/11/26 09:24:25;;;;;;;16.25;8.18;;;;;;;3.96;100.00;99379.59;5069882;28;20193;-41
2023/11/26 09:26:56;;;;;;;9.05;6.28;;;;;;;4.18;100.00;99383.88;5078353;28;20817;-41
2023/11/26 09:29:25;;;;;;;12.68;6.75;;;;;;;4.01;100.00;99384.66;5089252;28;20128;-41
2023/11/26 09:31:59;;;;;;;10.15;7.18;;;;;;;4.26;100.00;99369.38;5055231;28;20048;-41
2023/11/26 09:34:30;;;;;;;10.20;6.88;;;;;;;4.28;100.00;99374.56;5071008;28;20080;-42
2023/11/26 09:37:04;;;;;;;17.38;9.07;;;;;;;4.28;100.00;99374.56;5069930;28;20076;-41
2023/11/26 09:39:34;;;;;;;14.52;8.10;;;;;;;4.43;100.00;99371.16;5071033;28;20053;-45
2023/11/26 09:42:03;;;;;;;11.25;6.10;;;;;;;4.36;100.00;99375.06;5071523;28;20052;-42
2023/11/26 09:44:32;;;;;;;9.27;5.40;;;;;;;4.35;100.00;99367.22;5071211;28;20544;-42
2023/11/26 09:47:00;;;;;;;9.40;5.22;;;;;;;4.26;100.00;99384.34;5070925;28;20078;-41
2023/11/26 09:49:30;;;;;;;9.13;5.40;;;;;;;4.18;100.00;99390.00;5070741;28;20045;-41
2023/11/26 09:52:01;;;;;;;8.35;4.78;;;;;;;4.16;100.00;99396.28;5071267;28;20140;-41
2023/11/26 09:54:31;;;;;;;8.20;5.10;;;;;;;4.31;100.00;99385.81;5069622;28;20127;-42
2023/11/26 09:57:00;;;;;;;8.48;4.95;;;;;;;4.46;100.00;99381.59;5071002;28;20049;-43
2023/11/26 09:59:30;;;;;;;6.55;4.15;;;;;;;4.40;100.00;99387.16;5070968;28;20049;-50
2023/11/26 10:02:02;;;;;;;6.90;4.30;;;;;;;4.60;100.00;99384.41;5070619;28;20514;-43
2023/11/26 10:04:46;;;;;;;8.07;4.35;;;;;;;4.80;100.00;99386.06;5070774;28;20590;-40
2023/11/26 10:07:17;;;;;;;8.23;4.25;;;;;;;4.77;100.00;99386.22;5074524;28;20051;-41
2023/11/26 10:10:00;;;;;;;6.70;4.07;;;;;;;4.71;100.00;99401.50;5073123;28;20485;-41
2023/11/26 10:12:29;;;;;;;7.55;4.00;;;;;;;4.55;100.00;99397.00;5073179;28;20048;-42
2023/11/26 10:15:06;;;;;;;7.00;4.20;;;;;;;4.67;100.00;99407.88;5073959;28;20055;-42
2023/11/26 10:17:34;;;;;;;7.85;4.10;;;;;;;4.73;100.00;99410.22;5074759;28;20426;-42
2023/11/26 10:20:19;;;;;;;7.45;4.47;;;;;;;4.66;100.00;99414.09;5074764;28;20131;-42
2023/11/26 10:22:49;;;;;;;8.07;5.18;;;;;;;4.80;100.00;99419.53;5074615;28;20080;-42
2023/11/26 10:25:21;;;;;;;7.95;4.45;;;;;;;4.61;100.00;99427.53;5076481;28;20049;-43
2023/11/26 10:27:49;;;;;;;6.47;3.95;;;;;;;4.88;100.00;99431.44;5076994;28;20121;-42
2023/11/26 10:30:29;;;;;;;7.95;4.68;;;;;;;5.02;100.00;99433.41;5076444;28;20048;-44
2023/11/26 10:33:00;;;;;;;8.15;4.78;;;;;;;5.21;100.00;99421.88;5075391;28;20048;-42
2023/11/26 10:35:45;;;;;;;6.90;4.03;;;;;;;5.13;100.00;99424.94;5076036;28;20432;-43
2023/11/26 10:38:17;;;;;;;9.48;4.88;;;;;;;5.29;100.00;99440.84;5076261;28;20587;-44
2023/11/26 10:40:46;;;;;;;5.57;3.55;;;;;;;4.85;100.00;99457.19;5076682;28;20492;-42
2023/11/26 10:43:14;;;;;;;6.65;3.92;;;;;;;4.82;100.00;99452.03;5075908;28;20056;-42
2023/11/26 10:45:43;;;;;;;7.75;4.00;;;;;;;4.83;100.00;99453.75;5075346;28;20102;-43
2023/11/26 10:48:14;;;;;;;5.95;3.40;;;;;;;4.72;100.00;99451.63;5075522;28;20056;-43
2023/11/26 10:50:55;;;;;;;6.65;3.40;;;;;;;4.72;100.00;99446.34;5074701;28;20127;-42
2023/11/26 10:53:32;;;;;;;5.68;3.35;;;;;;;4.63;100.00;99438.00;5074906;28;20553;-41
2023/11/26 10:56:05;;;;;;;6.18;3.35;;;;;;;4.66;100.00;99443.16;5075085;28;20456;-44
2023/11/26 10:58:39;;;;;;;6.18;3.25;;;;;;;4.89;100.00;99458.72;5075130;28;20406;-42
2023/11/26 11:01:08;;;;;;;7.90;3.38;;;;;;;4.74;100.00;99456.84;5075279;28;20083;-42
2023/11/26 11:03:37;;;;;;;6.85;3.72;;;;;;;5.11;100.00;99454.06;5075632;28;20048;-44
2023/11/26 11:06:06;;;;;;;6.80;3.80;;;;;;;5.04;100.00;99468.56;5076849;28;20083;-45
2023/11/26 11:08:39;;;;;;;7.85;4.13;;;;;;;4.72;100.00;99448.13;5076819;28;20070;-42
2023/11/26 11:11:19;;;;;;;7.45;3.63;;;;;;;4.82;100.00;99462.59;5076609;28;20547;-43
2023/11/26 11:13:49;;;;;;;6.80;3.70;;;;;;;4.95;100.00;99462.88;5075693;28;20456;-45
2023/11/26 11:16:18;;;;;;;5.03;3.13;;;;;;;5.03;100.00;99466.84;5073987;28;20505;-43
2023/11/26 11:18:47;;;;;;;5.72;3.47;;;;;;;4.78;100.00;99466.34;5076805;28;20044;-41
2023/11/26 11:21:18;;;;;;;5.97;3.33;;;;;;;4.57;100.00;99474.38;5075778;28;20048;-42
2023/11/26 11:23:49;;;;;;;5.07;2.97;;;;;;;4.77;100.00;99483.97;5075489;28;20078;-42
2023/11/26 11:26:20;;;;;;;6.18;2.90;;;;;;;4.75;100.00;99477.91;5074912;28;20558;-43
2023/11/26 11:28:50;;;;;;;5.07;2.75;;;;;;;4.86;100.00;99464.16;5075390;28;20044;-42
2023/11/26 11:31:19;;;;;;;5.53;2.60;;;;;;;4.75;100.00;99480.56;5076734;28;20079;-42
2023/11/26 11:34:19;;;;;;;4.50;2.78;;;;;;;4.89;100.00;99490.44;5075567;28;20060;-43
2023/11/26 11:36:52;;;;;;;5.20;2.80;;;;;;;4.66;100.00;99498.63;5074970;28;20056;-43
2023/11/26 11:39:26;;;;;;;5.25;2.70;;;;;;;4.79;100.00;99491.81;5075894;28;20049;-42
2023/11/26 11:42:11;;;;;;;6.00;2.50;;;;;;;4.77;100.00;99485.75;5075123;28;20055;-42
2023/11/26 11:44:42;;;;;;;6.53;2.75;;;;;;;4.62;100.00;99504.97;5075597;28;20053;-43